Welcome to Trans World Virtual Airlines!

Welcome TWVA's Newest Pilot:

TWA2325 Matthew Schnaare

Not a Trans World pilot yet?
Apply Now!




Sign-in with your pilot id or email, or register

Flight TWRP7-2

  • Submitted By: Neil Bonner
  • Departure Airport: Wichita Mid-Continent Airport (KICT)
  • Arrival Airport: Rick Husband Amarillo International Airport (KAMA)
  • Aircraft: DC-4 (N34577)
  • Flight Time: 01.25
  • Date Submitted: 03/17/2019
  • Route: Departure: KAMA 172353Z 22006KT 10SM CLR 16/M05 A3018 RMK AO2 SLP211 T01561050 10172 20139 56005 Destination: KICT 172353Z 11006KT 10SM SCT120 SCT150 15/M02 A3022 RMK AO2 SLP235 T01501017 10178 20133 57004 $
  • Status: Accepted
Flight Details
Gross Revenue:
(80 load / $ 0.00 per unit
$ 0.00
Fuel Cost:
(2690 fuel used @ 0.8 / unit)
$ 2, 152.00

Additional Log Information:

View Log

FS[19:57] Aircraft Title - JBK Douglas_DC4 TWA V3
FS[19:57] Aircraft Model - DC4
FS[19:57] Flight Number TWRP7-2
FS[19:57] Departure KICT
FS[19:57] Destination KAMA
FS[19:57] Boarding
FS[19:59] Taxiing to Runway
FS[19:59] Taking Off
FS[20:00] Taking Off
FS[20:00] 107kts
FS[20:00] pitch angle 2 degrees
FS[20:00] 10708 (lbs) of fuel onboard
FS[20:01] Climbing
FS[20:10] TOC Reached
FS[20:10] Cruise 8000
FS[21:05] TOD Reached
FS[21:05] Descending
FS[21:08] On Approach
FS[21:10] Overspeed
FS[21:11] Overspeed Corrected
FS[21:16] Landing Rate -187fpm
FS[21:16] 8081 (lbs) of fuel onboard
FS[21:16] pitch angle -4 degrees
FS[21:17] Taxiing to Gate
FS[21:19] Arrived
FS[21:22] Max Sim Rate: 1x
FS[21:22] kACARS_Free Version 1.0.1.1

Route Map